KAUW/AUW METAR and TAF weather

Enter ICAO airport designator
Station Type Date Time Source
KAUW METAR 2022/01/23 12:54 UTC NOAA

KAUW 231254Z AUTO 28006KT 10SM CLR M20/M24 A3000 RMK AO2 SLP192 I1000 T12001239 $


Station Type Date Time Source
KAUW Decoded METAR 2022/01/23 12:54 UTC NOAA

WAUSAU DOWNTOWN AIRPORT, WI, United States (KAUW) 44-56N 089-37W 362M
Jan 23, 2022 - 07:54 AM EST / 2022.01.23 1254 UTC
Wind: from the W (280 degrees) at 7 MPH (6 KT):0
Visibility: 10 mile(s):0
Sky conditions: clear
Temperature: -4.0 F (-20.0 C)
Windchill: -18 F (-28 C):2
Dew Point: -11.0 F (-23.9 C)
Relative Humidity: 71%
Pressure (altimeter): 30 in. Hg (1015 hPa)
ob: KAUW 231254Z AUTO 28006KT 10SM CLR M20/M24 A3000 RMK AO2 SLP192 I1000 T12001239
cycle: 13

Station Type Date Time Source
KAUW TAF 2022/01/23 12:45 UTC NOAA

TAF KAUW 231141Z 2312/2412 32005KT P6SM SCT025
FM231800 26005KT P6SM BKN150
FM232300 23004KT P6SM OVC090
FM240400 21004KT 6SM -SN OVC035
TEMPO 2404/2406 3SM -SN OVC025
FM240600 18005KT 1 1/2SM -SN OVC015
FM241000 15003KT 3SM -SN OVC012

Example: see airport list